createdAt,value
2022-08-07T00:01:01.406Z,102221.00
2022-08-07T00:06:29.588Z,102218.50
2022-08-07T00:11:35.335Z,102209.38
2022-08-07T00:16:49.560Z,102210.03
2022-08-07T00:21:56.195Z,102210.53
2022-08-07T00:27:07.425Z,102210.50
2022-08-07T00:32:13.524Z,102201.56
2022-08-07T00:37:16.299Z,102200.69
2022-08-07T00:42:17.813Z,102198.47
2022-08-07T00:48:09.181Z,102200.06
2022-08-07T00:52:41.183Z,102199.63
2022-08-07T00:57:55.096Z,102192.16
2022-08-07T01:02:57.515Z,102182.91
2022-08-07T01:07:59.582Z,102176.38
2022-08-07T01:13:01.207Z,102173.06
2022-08-07T01:18:04.611Z,102172.69
2022-08-07T01:23:12.732Z,102172.50
2022-08-07T01:28:14.638Z,102166.84
2022-08-07T01:33:16.666Z,102173.97
2022-08-07T01:38:25.022Z,102172.25
2022-08-07T01:43:34.673Z,102165.56
2022-08-07T01:48:46.444Z,102160.31
2022-08-07T01:54:12.761Z,102169.25
2022-08-07T01:59:52.350Z,102160.03
2022-08-07T02:05:04.691Z,102153.78
2022-08-07T02:10:06.716Z,102159.84
2022-08-07T02:15:09.091Z,102146.19
2022-08-07T02:20:19.702Z,102152.09
2022-08-07T02:25:21.494Z,102144.75
2022-08-07T02:30:42.996Z,102150.97
2022-08-07T02:36:28.182Z,102150.34
2022-08-07T02:41:06.371Z,102148.66
2022-08-07T02:46:09.647Z,102141.56
2022-08-07T02:51:29.105Z,102139.84
2022-08-07T02:56:34.708Z,102146.78
2022-08-07T03:01:40.216Z,102142.38
2022-08-07T03:06:45.936Z,102139.78
2022-08-07T03:11:51.640Z,102126.41
2022-08-07T03:16:53.614Z,102126.25
2022-08-07T03:21:55.158Z,102127.41
2022-08-07T03:27:00.525Z,102134.06
2022-08-07T03:32:03.500Z,102132.91
2022-08-07T03:37:12.387Z,102128.88
2022-08-07T03:42:14.673Z,102123.47
2022-08-07T03:47:16.224Z,102120.97
2022-08-07T03:52:26.134Z,102119.59
2022-08-07T03:58:33.614Z,102114.84
2022-08-07T04:02:50.966Z,102111.91
2022-08-07T04:07:58.323Z,102112.44
2022-08-07T04:13:01.963Z,102117.91
2022-08-07T04:18:56.262Z,102113.88
2022-08-07T04:23:25.748Z,102125.59
2022-08-07T04:28:45.587Z,102125.41
2022-08-07T04:33:47.564Z,102125.22
2022-08-07T04:38:56.718Z,102127.84
2022-08-07T04:44:12.543Z,102125.41
2022-08-07T04:49:27.357Z,102134.66
2022-08-07T04:54:36.852Z,102133.22
2022-08-07T05:00:11.170Z,102134.66
2022-08-07T05:05:53.436Z,102136.47
2022-08-07T05:10:44.066Z,102131.34
2022-08-07T05:15:49.897Z,102142.03
2022-08-07T05:20:54.860Z,102147.59
2022-08-07T05:26:12.949Z,102154.56
2022-08-07T05:31:20.201Z,102155.88
2022-08-07T05:36:22.358Z,102158.03
2022-08-07T05:41:24.415Z,102153.53
2022-08-07T05:46:47.698Z,102158.53
2022-08-07T05:51:53.435Z,102163.97
2022-08-07T05:56:55.463Z,102163.81
2022-08-07T06:01:58.199Z,102157.00
2022-08-07T06:07:05.779Z,102155.00
2022-08-07T06:12:07.709Z,102162.09
2022-08-07T06:17:10.115Z,102164.22
2022-08-07T06:22:24.010Z,102165.00
2022-08-07T06:27:59.718Z,102161.72
2022-08-07T06:32:50.241Z,102168.09
2022-08-07T06:37:52.944Z,102164.59
2022-08-07T06:42:55.881Z,102163.66
2022-08-07T06:47:59.134Z,102161.16
2022-08-07T06:53:01.148Z,102152.03
2022-08-07T06:58:09.432Z,102147.19
2022-08-07T07:03:14.396Z,102155.06
2022-08-07T07:08:25.612Z,102152.97
2022-08-07T07:13:55.325Z,102157.53
2022-08-07T07:19:40.960Z,102162.25
2022-08-07T07:24:26.110Z,102164.13
2022-08-07T07:29:56.107Z,102164.25
2022-08-07T07:34:52.490Z,102161.94
2022-08-07T07:39:55.725Z,102168.88
2022-08-07T07:44:57.316Z,102166.88
2022-08-07T07:50:34.755Z,102171.81
2022-08-07T07:55:20.403Z,102161.84
2022-08-07T08:00:29.507Z,102154.88
2022-08-07T08:05:51.049Z,102156.13
2022-08-07T08:10:57.006Z,102159.72
2022-08-07T08:16:00.710Z,102156.56
2022-08-07T08:21:02.526Z,102169.63
2022-08-07T08:26:25.120Z,102161.03
2022-08-07T08:31:58.416Z,102155.63
2022-08-07T08:36:56.215Z,102161.63
2022-08-07T08:42:03.532Z,102157.88
2022-08-07T08:47:26.842Z,102165.63
2022-08-07T08:52:36.039Z,102164.63
2022-08-07T08:57:50.484Z,102161.50
2022-08-07T09:02:58.654Z,102159.69
2022-08-07T09:08:28.596Z,102159.25
2022-08-07T09:13:47.004Z,102161.84
2022-08-07T09:19:03.369Z,102149.97
2022-08-07T09:24:55.997Z,102149.13
2022-08-07T09:30:03.989Z,102151.25
2022-08-07T09:36:04.588Z,102147.84
2022-08-07T09:41:27.906Z,102146.88
2022-08-07T09:47:50.786Z,102135.31
2022-08-07T09:52:51.684Z,102138.63
2022-08-07T09:57:56.240Z,102150.16
2022-08-07T10:04:05.461Z,102132.91
2022-08-07T10:08:59.439Z,102138.44
2022-08-07T10:14:39.686Z,102137.28
2022-08-07T10:20:12.961Z,102131.78
2022-08-07T10:25:45.490Z,102125.94
2022-08-07T10:31:21.250Z,102130.13
2022-08-07T10:36:36.283Z,102120.09
2022-08-07T10:41:46.508Z,102119.91
2022-08-07T10:47:14.264Z,102118.84
2022-08-07T10:52:21.759Z,102130.72
2022-08-07T10:58:02.385Z,102115.91
2022-08-07T11:03:12.623Z,102097.09
2022-08-07T11:08:30.456Z,102097.41
2022-08-07T11:14:46.081Z,102105.69
2022-08-07T11:19:42.376Z,102094.09
2022-08-07T11:24:47.326Z,102103.13
2022-08-07T11:30:18.752Z,102098.03
2022-08-07T11:35:31.233Z,102089.41
2022-08-07T11:41:07.803Z,102078.13
2022-08-07T11:46:21.394Z,102088.91
2022-08-07T11:51:50.459Z,102074.78
2022-08-07T11:57:12.833Z,102084.72
2022-08-07T12:02:31.000Z,102079.31
2022-08-07T12:07:38.682Z,102074.13
2022-08-07T12:12:43.906Z,102072.44
2022-08-07T12:18:08.242Z,102076.13
2022-08-07T12:24:05.537Z,102079.28
2022-08-07T12:29:11.714Z,102077.09
2022-08-07T12:34:13.307Z,102068.91
2022-08-07T12:39:42.567Z,102082.66
2022-08-07T12:44:36.919Z,102082.38
2022-08-07T12:50:04.447Z,102078.16
2022-08-07T12:55:40.579Z,102078.16
2022-08-07T13:00:53.551Z,102071.22
2022-08-07T13:06:29.431Z,102070.34
2022-08-07T13:12:03.552Z,102076.16
2022-08-07T13:17:11.999Z,102059.22
2022-08-07T13:22:19.771Z,102048.13
2022-08-07T13:28:12.481Z,102049.75
2022-08-07T13:34:33.647Z,102062.16
2022-08-07T13:38:48.794Z,102049.09
2022-08-07T13:43:52.769Z,102047.94
2022-08-07T13:48:58.547Z,102036.22
2022-08-07T13:54:09.530Z,102042.75
2022-08-07T13:59:21.949Z,102028.63
2022-08-07T14:04:29.806Z,102023.03
2022-08-07T14:10:00.918Z,102010.34
2022-08-07T14:15:04.987Z,102010.91
2022-08-07T14:20:43.085Z,102010.78
2022-08-07T14:25:39.519Z,102009.88
2022-08-07T14:30:47.835Z,102018.56
2022-08-07T14:35:57.328Z,102003.09
2022-08-07T14:41:12.433Z,102006.31
2022-08-07T14:46:17.601Z,102008.09
2022-08-07T14:51:21.195Z,102009.13
2022-08-07T14:56:30.327Z,102014.41
2022-08-07T15:01:42.330Z,102008.22
2022-08-07T15:06:47.629Z,102006.06
2022-08-07T15:12:01.298Z,102008.72
2022-08-07T15:17:04.722Z,102010.69
2022-08-07T15:22:23.134Z,102002.00
2022-08-07T15:27:34.150Z,101999.44
2022-08-07T15:38:17.236Z,101995.94
2022-08-07T15:43:53.850Z,101986.91
2022-08-07T15:49:11.894Z,101989.75
2022-08-07T15:54:11.922Z,101976.19
2022-08-07T15:59:19.982Z,101974.78
2022-08-07T16:04:42.167Z,101975.22
2022-08-07T16:09:53.924Z,101975.06
2022-08-07T16:21:53.490Z,101959.81
2022-08-07T16:26:30.728Z,101960.94
2022-08-07T16:31:51.565Z,101957.88
2022-08-07T16:38:05.832Z,101962.72
2022-08-07T16:42:55.898Z,101960.38
2022-08-07T16:48:58.238Z,101958.56
2022-08-07T16:54:06.708Z,101961.66
2022-08-07T16:59:19.832Z,101968.03
2022-08-07T17:04:24.474Z,101964.84
2022-08-07T17:10:07.091Z,101967.47
2022-08-07T17:15:15.635Z,101965.59
2022-08-07T17:20:31.871Z,101963.66
2022-08-07T17:25:47.440Z,101949.63
2022-08-07T17:31:00.741Z,101941.72
2022-08-07T17:36:26.086Z,101945.28
2022-08-07T17:42:02.086Z,101933.75
2022-08-07T17:47:17.147Z,101931.78
2022-08-07T17:52:36.139Z,101927.06
2022-08-07T17:57:56.544Z,101935.34
2022-08-07T18:03:18.302Z,101935.63
2022-08-07T18:08:26.079Z,101932.41
2022-08-07T18:13:48.713Z,101929.28
2022-08-07T18:21:11.869Z,101925.78
2022-08-07T18:24:33.027Z,101929.56
2022-08-07T18:30:07.453Z,101926.50
2022-08-07T18:35:17.364Z,101926.00
2022-08-07T18:40:42.748Z,101921.34
2022-08-07T18:46:24.870Z,101926.97
2022-08-07T18:52:35.608Z,101942.03
2022-08-07T18:57:30.682Z,101942.19
2022-08-07T19:02:45.492Z,101954.56
2022-08-07T19:07:59.117Z,101951.94
2022-08-07T19:13:49.927Z,101947.81
2022-08-07T19:18:58.318Z,101958.41
2022-08-07T19:24:02.310Z,101956.69
2022-08-07T19:30:56.463Z,101967.09
2022-08-07T19:34:33.874Z,101976.41
2022-08-07T19:39:55.997Z,101989.09
2022-08-07T19:45:08.566Z,102000.25
2022-08-07T19:50:42.964Z,101987.72
2022-08-07T19:55:56.323Z,101992.78
2022-08-07T20:00:56.096Z,102001.56
2022-08-07T20:06:02.104Z,101996.38
2022-08-07T20:11:09.967Z,101999.75
2022-08-07T20:16:32.014Z,101982.44
2022-08-07T20:21:42.316Z,102001.47
2022-08-07T20:26:52.295Z,101993.94
2022-08-07T20:31:56.589Z,101987.19
2022-08-07T20:37:00.223Z,102001.69
2022-08-07T20:42:07.055Z,102003.56
2022-08-07T20:47:12.517Z,102004.63
2022-08-07T20:52:21.167Z,102004.78
2022-08-07T20:57:47.342Z,102006.44
2022-08-07T21:03:01.764Z,102005.84
2022-08-07T21:08:08.366Z,102015.63
2022-08-07T21:13:16.719Z,102016.00
2022-08-07T21:18:27.790Z,102021.66
2022-08-07T21:23:50.531Z,102010.34
2022-08-07T21:28:55.382Z,102007.41
2022-08-07T21:34:12.356Z,102012.31
2022-08-07T21:39:46.031Z,102008.81
2022-08-07T21:44:44.776Z,102009.91
2022-08-07T21:50:02.053Z,102010.50
2022-08-07T21:55:30.231Z,102015.31
2022-08-07T22:00:32.435Z,102016.63
2022-08-07T22:05:45.138Z,102015.81
2022-08-07T22:10:57.967Z,102011.50
2022-08-07T22:16:39.489Z,102021.38
2022-08-07T22:22:01.935Z,102019.19
2022-08-07T22:27:10.275Z,102028.53
2022-08-07T22:32:27.010Z,102027.50
2022-08-07T22:38:02.005Z,102019.56
2022-08-07T22:43:17.968Z,102029.38
2022-08-07T22:48:55.966Z,102031.66
2022-08-07T22:54:22.358Z,102034.59
2022-08-07T22:59:46.840Z,102029.34
2022-08-07T23:06:09.841Z,102025.53
2022-08-07T23:10:42.029Z,102021.06
2022-08-07T23:16:44.377Z,102018.44
2022-08-07T23:21:30.231Z,102014.19
2022-08-07T23:27:02.828Z,102013.06
2022-08-07T23:34:23.333Z,102023.72
2022-08-07T23:38:10.865Z,102015.63
2022-08-07T23:43:40.902Z,102002.34
2022-08-07T23:49:07.101Z,102013.03
2022-08-07T23:54:54.371Z,102010.00
